sensor_id;sensor_type;location;lat;lon;timestamp;temperature;humidity
18412;DHT22;27097;51.738;19.472;2023-04-24T00:00:22;22.60;65.80
18412;DHT22;27097;51.738;19.472;2023-04-24T00:02:49;22.60;64.50
18412;DHT22;27097;51.738;19.472;2023-04-24T00:05:18;22.70;67.30
18412;DHT22;27097;51.738;19.472;2023-04-24T00:07:47;22.60;66.50
18412;DHT22;27097;51.738;19.472;2023-04-24T00:10:13;22.60;62.30
18412;DHT22;27097;51.738;19.472;2023-04-24T00:12:40;22.60;61.20
18412;DHT22;27097;51.738;19.472;2023-04-24T00:15:09;22.60;61.00
18412;DHT22;27097;51.738;19.472;2023-04-24T00:17:36;22.60;60.60
18412;DHT22;27097;51.738;19.472;2023-04-24T00:20:03;22.60;62.00
18412;DHT22;27097;51.738;19.472;2023-04-24T00:22:32;22.50;60.90
18412;DHT22;27097;51.738;19.472;2023-04-24T00:25:00;22.50;60.30
18412;DHT22;27097;51.738;19.472;2023-04-24T00:27:27;22.50;61.30
18412;DHT22;27097;51.738;19.472;2023-04-24T00:29:54;22.50;68.70
18412;DHT22;27097;51.738;19.472;2023-04-24T00:32:21;22.50;72.60
18412;DHT22;27097;51.738;19.472;2023-04-24T00:34:48;22.50;74.30
18412;DHT22;27097;51.738;19.472;2023-04-24T00:37:14;22.50;71.30
18412;DHT22;27097;51.738;19.472;2023-04-24T00:39:41;22.50;71.30
18412;DHT22;27097;51.738;19.472;2023-04-24T00:42:09;22.50;74.30
18412;DHT22;27097;51.738;19.472;2023-04-24T00:44:36;22.50;75.90
18412;DHT22;27097;51.738;19.472;2023-04-24T00:47:03;22.50;71.20
18412;DHT22;27097;51.738;19.472;2023-04-24T00:49:30;22.50;70.80
18412;DHT22;27097;51.738;19.472;2023-04-24T00:51:57;22.50;72.00
18412;DHT22;27097;51.738;19.472;2023-04-24T00:54:24;22.50;73.10
18412;DHT22;27097;51.738;19.472;2023-04-24T00:56:51;22.60;75.30
18412;DHT22;27097;51.738;19.472;2023-04-24T00:59:19;22.50;70.90
18412;DHT22;27097;51.738;19.472;2023-04-24T01:01:46;22.60;72.90
18412;DHT22;27097;51.738;19.472;2023-04-24T01:04:14;22.60;74.30
18412;DHT22;27097;51.738;19.472;2023-04-24T01:06:43;22.60;76.70
18412;DHT22;27097;51.738;19.472;2023-04-24T01:09:11;22.60;76.40
18412;DHT22;27097;51.738;19.472;2023-04-24T01:11:38;22.50;76.00
18412;DHT22;27097;51.738;19.472;2023-04-24T01:14:06;22.60;76.10
18412;DHT22;27097;51.738;19.472;2023-04-24T01:16:34;22.60;75.70
18412;DHT22;27097;51.738;19.472;2023-04-24T01:19:03;22.60;76.00
18412;DHT22;27097;51.738;19.472;2023-04-24T01:21:31;22.60;74.50
18412;DHT22;27097;51.738;19.472;2023-04-24T01:24:02;22.60;76.30
18412;DHT22;27097;51.738;19.472;2023-04-24T01:26:29;22.60;76.10
18412;DHT22;27097;51.738;19.472;2023-04-24T01:28:55;22.60;76.00
18412;DHT22;27097;51.738;19.472;2023-04-24T01:31:23;22.60;75.30
18412;DHT22;27097;51.738;19.472;2023-04-24T01:33:50;22.60;75.60
18412;DHT22;27097;51.738;19.472;2023-04-24T01:36:18;22.60;74.80
18412;DHT22;27097;51.738;19.472;2023-04-24T01:38:45;22.50;75.70
18412;DHT22;27097;51.738;19.472;2023-04-24T01:41:13;22.50;76.10
18412;DHT22;27097;51.738;19.472;2023-04-24T01:43:40;22.60;75.70
18412;DHT22;27097;51.738;19.472;2023-04-24T01:46:07;22.60;74.50
18412;DHT22;27097;51.738;19.472;2023-04-24T01:48:35;22.60;74.90
18412;DHT22;27097;51.738;19.472;2023-04-24T01:51:02;22.60;75.40
18412;DHT22;27097;51.738;19.472;2023-04-24T01:53:29;22.60;75.60
18412;DHT22;27097;51.738;19.472;2023-04-24T01:55:56;22.50;76.30
18412;DHT22;27097;51.738;19.472;2023-04-24T01:58:25;22.50;76.10
18412;DHT22;27097;51.738;19.472;2023-04-24T02:00:51;22.50;76.40
18412;DHT22;27097;51.738;19.472;2023-04-24T02:03:18;22.50;74.10
18412;DHT22;27097;51.738;19.472;2023-04-24T02:05:45;22.50;73.00
18412;DHT22;27097;51.738;19.472;2023-04-24T02:08:12;22.50;72.90
18412;DHT22;27097;51.738;19.472;2023-04-24T02:10:39;22.50;74.90
18412;DHT22;27097;51.738;19.472;2023-04-24T02:13:06;22.50;75.10
18412;DHT22;27097;51.738;19.472;2023-04-24T02:15:34;22.50;76.10
18412;DHT22;27097;51.738;19.472;2023-04-24T02:18:01;22.50;72.90
18412;DHT22;27097;51.738;19.472;2023-04-24T02:20:28;22.50;75.20
18412;DHT22;27097;51.738;19.472;2023-04-24T02:22:55;22.50;76.10
18412;DHT22;27097;51.738;19.472;2023-04-24T02:25:22;22.50;72.20
18412;DHT22;27097;51.738;19.472;2023-04-24T02:27:49;22.50;73.90
18412;DHT22;27097;51.738;19.472;2023-04-24T02:30:15;22.50;73.50
18412;DHT22;27097;51.738;19.472;2023-04-24T02:32:44;22.50;72.80
18412;DHT22;27097;51.738;19.472;2023-04-24T02:35:11;22.50;71.80
18412;DHT22;27097;51.738;19.472;2023-04-24T02:37:37;22.50;73.20
18412;DHT22;27097;51.738;19.472;2023-04-24T02:40:06;22.50;73.30
18412;DHT22;27097;51.738;19.472;2023-04-24T02:42:33;22.50;72.70
18412;DHT22;27097;51.738;19.472;2023-04-24T02:45:00;22.50;72.10
18412;DHT22;27097;51.738;19.472;2023-04-24T02:47:27;22.50;72.90
18412;DHT22;27097;51.738;19.472;2023-04-24T02:49:55;22.50;74.60
18412;DHT22;27097;51.738;19.472;2023-04-24T02:52:22;22.50;75.10
18412;DHT22;27097;51.738;19.472;2023-04-24T02:54:49;22.50;75.40
18412;DHT22;27097;51.738;19.472;2023-04-24T02:57:15;22.50;70.30
18412;DHT22;27097;51.738;19.472;2023-04-24T02:59:42;22.50;73.40
18412;DHT22;27097;51.738;19.472;2023-04-24T03:02:09;22.50;74.10
18412;DHT22;27097;51.738;19.472;2023-04-24T03:04:36;22.50;73.00
18412;DHT22;27097;51.738;19.472;2023-04-24T03:07:04;22.50;71.10
18412;DHT22;27097;51.738;19.472;2023-04-24T03:09:31;22.40;71.40
18412;DHT22;27097;51.738;19.472;2023-04-24T03:11:58;22.50;71.00
18412;DHT22;27097;51.738;19.472;2023-04-24T03:14:26;22.50;71.30
18412;DHT22;27097;51.738;19.472;2023-04-24T03:16:52;22.40;74.30
18412;DHT22;27097;51.738;19.472;2023-04-24T03:19:19;22.40;72.70
18412;DHT22;27097;51.738;19.472;2023-04-24T03:21:46;22.40;71.80
18412;DHT22;27097;51.738;19.472;2023-04-24T03:24:14;22.40;70.90
18412;DHT22;27097;51.738;19.472;2023-04-24T03:26:41;22.40;73.60
18412;DHT22;27097;51.738;19.472;2023-04-24T03:29:08;22.40;68.20
18412;DHT22;27097;51.738;19.472;2023-04-24T03:31:35;22.40;72.00
18412;DHT22;27097;51.738;19.472;2023-04-24T03:34:02;22.50;70.30
18412;DHT22;27097;51.738;19.472;2023-04-24T03:36:28;22.40;68.70
18412;DHT22;27097;51.738;19.472;2023-04-24T03:38:56;22.40;73.00
18412;DHT22;27097;51.738;19.472;2023-04-24T03:41:24;22.40;71.80
18412;DHT22;27097;51.738;19.472;2023-04-24T03:43:51;22.40;73.60
18412;DHT22;27097;51.738;19.472;2023-04-24T03:46:18;22.40;74.90
18412;DHT22;27097;51.738;19.472;2023-04-24T03:48:45;22.40;70.90
18412;DHT22;27097;51.738;19.472;2023-04-24T03:51:12;22.40;71.90
18412;DHT22;27097;51.738;19.472;2023-04-24T03:53:39;22.40;73.90
18412;DHT22;27097;51.738;19.472;2023-04-24T03:56:05;22.40;70.70
18412;DHT22;27097;51.738;19.472;2023-04-24T03:58:34;22.40;71.70
18412;DHT22;27097;51.738;19.472;2023-04-24T04:01:00;22.40;72.60
18412;DHT22;27097;51.738;19.472;2023-04-24T04:03:28;22.40;71.60
18412;DHT22;27097;51.738;19.472;2023-04-24T04:05:55;22.40;74.00
18412;DHT22;27097;51.738;19.472;2023-04-24T04:08:22;22.40;70.00
18412;DHT22;27097;51.738;19.472;2023-04-24T04:10:49;22.40;73.40
18412;DHT22;27097;51.738;19.472;2023-04-24T04:13:16;22.40;71.30
18412;DHT22;27097;51.738;19.472;2023-04-24T04:15:44;22.40;72.20
18412;DHT22;27097;51.738;19.472;2023-04-24T04:18:11;22.40;73.20
18412;DHT22;27097;51.738;19.472;2023-04-24T04:20:38;22.40;74.10
18412;DHT22;27097;51.738;19.472;2023-04-24T04:23:05;22.40;73.90
18412;DHT22;27097;51.738;19.472;2023-04-24T04:25:32;22.40;73.10
18412;DHT22;27097;51.738;19.472;2023-04-24T04:27:59;22.40;73.60
18412;DHT22;27097;51.738;19.472;2023-04-24T04:30:27;22.40;71.70
18412;DHT22;27097;51.738;19.472;2023-04-24T04:32:56;22.40;70.00
18412;DHT22;27097;51.738;19.472;2023-04-24T04:35:23;22.40;69.10
18412;DHT22;27097;51.738;19.472;2023-04-24T04:37:50;22.40;72.00
18412;DHT22;27097;51.738;19.472;2023-04-24T04:40:17;22.40;71.20
18412;DHT22;27097;51.738;19.472;2023-04-24T04:42:44;22.40;69.20
18412;DHT22;27097;51.738;19.472;2023-04-24T04:45:11;22.40;71.10
18412;DHT22;27097;51.738;19.472;2023-04-24T04:47:38;22.50;71.00
18412;DHT22;27097;51.738;19.472;2023-04-24T04:50:08;22.40;72.70
18412;DHT22;27097;51.738;19.472;2023-04-24T04:52:36;22.50;70.10
18412;DHT22;27097;51.738;19.472;2023-04-24T04:55:03;22.50;67.30
18412;DHT22;27097;51.738;19.472;2023-04-24T04:57:30;22.50;71.30
18412;DHT22;27097;51.738;19.472;2023-04-24T04:59:57;22.50;67.70
18412;DHT22;27097;51.738;19.472;2023-04-24T05:02:24;22.50;69.60
18412;DHT22;27097;51.738;19.472;2023-04-24T05:04:51;22.50;69.10
18412;DHT22;27097;51.738;19.472;2023-04-24T05:07:19;22.50;67.90
18412;DHT22;27097;51.738;19.472;2023-04-24T05:09:46;22.50;69.40
18412;DHT22;27097;51.738;19.472;2023-04-24T05:12:13;22.50;68.60
18412;DHT22;27097;51.738;19.472;2023-04-24T05:14:40;22.50;70.80
18412;DHT22;27097;51.738;19.472;2023-04-24T05:17:07;22.50;68.70
18412;DHT22;27097;51.738;19.472;2023-04-24T05:19:34;22.60;67.20
18412;DHT22;27097;51.738;19.472;2023-04-24T05:22:03;22.50;65.90
18412;DHT22;27097;51.738;19.472;2023-04-24T05:24:33;22.60;68.20
18412;DHT22;27097;51.738;19.472;2023-04-24T05:27:00;22.60;66.00
18412;DHT22;27097;51.738;19.472;2023-04-24T05:29:27;22.60;72.70
18412;DHT22;27097;51.738;19.472;2023-04-24T05:31:56;22.60;68.30
18412;DHT22;27097;51.738;19.472;2023-04-24T05:34:23;22.60;71.30
18412;DHT22;27097;51.738;19.472;2023-04-24T05:36:50;22.60;71.00
18412;DHT22;27097;51.738;19.472;2023-04-24T05:39:17;22.60;66.70
18412;DHT22;27097;51.738;19.472;2023-04-24T05:41:46;22.60;66.50
18412;DHT22;27097;51.738;19.472;2023-04-24T05:44:13;22.70;66.40
18412;DHT22;27097;51.738;19.472;2023-04-24T05:46:40;22.70;64.70
18412;DHT22;27097;51.738;19.472;2023-04-24T05:49:07;22.70;67.20
18412;DHT22;27097;51.738;19.472;2023-04-24T05:51:34;22.70;66.20
18412;DHT22;27097;51.738;19.472;2023-04-24T05:54:01;22.70;68.90
18412;DHT22;27097;51.738;19.472;2023-04-24T05:56:38;22.70;67.70
18412;DHT22;27097;51.738;19.472;2023-04-24T05:59:15;22.70;67.20
18412;DHT22;27097;51.738;19.472;2023-04-24T06:01:44;22.80;67.10
18412;DHT22;27097;51.738;19.472;2023-04-24T06:04:12;22.80;65.10
18412;DHT22;27097;51.738;19.472;2023-04-24T06:06:40;22.80;66.40
18412;DHT22;27097;51.738;19.472;2023-04-24T06:09:06;22.90;69.10
18412;DHT22;27097;51.738;19.472;2023-04-24T06:11:33;22.90;68.70
18412;DHT22;27097;51.738;19.472;2023-04-24T06:14:00;22.90;67.60
18412;DHT22;27097;51.738;19.472;2023-04-24T06:16:29;22.90;67.60
18412;DHT22;27097;51.738;19.472;2023-04-24T06:19:06;22.90;66.20
18412;DHT22;27097;51.738;19.472;2023-04-24T06:21:39;23.00;65.90
18412;DHT22;27097;51.738;19.472;2023-04-24T06:24:21;23.00;66.90
18412;DHT22;27097;51.738;19.472;2023-04-24T06:29:25;23.00;70.10
18412;DHT22;27097;51.738;19.472;2023-04-24T06:32:08;23.00;68.90
18412;DHT22;27097;51.738;19.472;2023-04-24T06:34:35;23.00;69.10
18412;DHT22;27097;51.738;19.472;2023-04-24T06:37:05;23.00;65.80
18412;DHT22;27097;51.738;19.472;2023-04-24T06:39:52;23.00;67.50
18412;DHT22;27097;51.738;19.472;2023-04-24T06:42:18;23.10;67.60
18412;DHT22;27097;51.738;19.472;2023-04-24T06:44:46;23.10;63.80
18412;DHT22;27097;51.738;19.472;2023-04-24T06:47:14;23.20;67.10
18412;DHT22;27097;51.738;19.472;2023-04-24T06:49:41;23.20;63.70
18412;DHT22;27097;51.738;19.472;2023-04-24T06:52:08;23.20;64.30
18412;DHT22;27097;51.738;19.472;2023-04-24T06:54:36;23.20;63.20
18412;DHT22;27097;51.738;19.472;2023-04-24T06:57:02;23.30;64.10
18412;DHT22;27097;51.738;19.472;2023-04-24T06:59:30;23.30;62.20
18412;DHT22;27097;51.738;19.472;2023-04-24T07:01:57;23.30;65.30
18412;DHT22;27097;51.738;19.472;2023-04-24T07:04:25;23.40;65.30
18412;DHT22;27097;51.738;19.472;2023-04-24T07:06:52;23.30;63.00
18412;DHT22;27097;51.738;19.472;2023-04-24T07:09:36;23.30;61.40
18412;DHT22;27097;51.738;19.472;2023-04-24T07:12:05;23.30;59.70
18412;DHT22;27097;51.738;19.472;2023-04-24T07:14:32;23.30;60.70
18412;DHT22;27097;51.738;19.472;2023-04-24T07:16:59;23.30;60.70
18412;DHT22;27097;51.738;19.472;2023-04-24T07:19:28;23.40;59.50
18412;DHT22;27097;51.738;19.472;2023-04-24T07:21:55;23.40;58.80
18412;DHT22;27097;51.738;19.472;2023-04-24T07:24:23;23.40;64.40
18412;DHT22;27097;51.738;19.472;2023-04-24T07:26:51;23.40;63.30
18412;DHT22;27097;51.738;19.472;2023-04-24T07:29:18;23.40;62.80
18412;DHT22;27097;51.738;19.472;2023-04-24T07:31:45;23.40;58.50
18412;DHT22;27097;51.738;19.472;2023-04-24T07:34:12;23.40;59.50
18412;DHT22;27097;51.738;19.472;2023-04-24T07:36:41;23.40;59.80
18412;DHT22;27097;51.738;19.472;2023-04-24T07:39:08;23.50;59.00
18412;DHT22;27097;51.738;19.472;2023-04-24T07:41:38;23.50;60.70
18412;DHT22;27097;51.738;19.472;2023-04-24T07:44:05;23.50;58.90
18412;DHT22;27097;51.738;19.472;2023-04-24T07:46:32;23.50;59.00
18412;DHT22;27097;51.738;19.472;2023-04-24T07:48:59;23.50;61.40
18412;DHT22;27097;51.738;19.472;2023-04-24T07:51:26;23.60;60.10
18412;DHT22;27097;51.738;19.472;2023-04-24T07:53:55;23.50;59.20
18412;DHT22;27097;51.738;19.472;2023-04-24T07:56:22;23.60;59.60
18412;DHT22;27097;51.738;19.472;2023-04-24T07:58:49;23.60;61.10
18412;DHT22;27097;51.738;19.472;2023-04-24T08:01:16;23.60;58.90
18412;DHT22;27097;51.738;19.472;2023-04-24T08:03:43;23.60;58.70
18412;DHT22;27097;51.738;19.472;2023-04-24T08:06:09;23.60;57.40
18412;DHT22;27097;51.738;19.472;2023-04-24T08:08:36;23.60;58.50
18412;DHT22;27097;51.738;19.472;2023-04-24T08:11:05;23.70;59.30
18412;DHT22;27097;51.738;19.472;2023-04-24T08:13:32;23.70;58.20
18412;DHT22;27097;51.738;19.472;2023-04-24T08:15:59;23.70;60.50
18412;DHT22;27097;51.738;19.472;2023-04-24T08:18:26;23.70;58.00
18412;DHT22;27097;51.738;19.472;2023-04-24T08:20:52;23.70;56.40
18412;DHT22;27097;51.738;19.472;2023-04-24T08:23:19;23.70;56.40
18412;DHT22;27097;51.738;19.472;2023-04-24T08:25:47;23.70;57.30
18412;DHT22;27097;51.738;19.472;2023-04-24T08:28:16;23.80;56.80
18412;DHT22;27097;51.738;19.472;2023-04-24T08:30:45;23.80;56.80
18412;DHT22;27097;51.738;19.472;2023-04-24T08:33:20;23.80;56.20
18412;DHT22;27097;51.738;19.472;2023-04-24T08:35:47;23.80;56.10
18412;DHT22;27097;51.738;19.472;2023-04-24T08:38:14;23.90;55.60
18412;DHT22;27097;51.738;19.472;2023-04-24T08:40:41;23.90;56.60
18412;DHT22;27097;51.738;19.472;2023-04-24T08:43:09;23.90;56.30
18412;DHT22;27097;51.738;19.472;2023-04-24T08:45:38;23.90;55.00
18412;DHT22;27097;51.738;19.472;2023-04-24T08:48:06;24.00;56.20
18412;DHT22;27097;51.738;19.472;2023-04-24T08:50:34;24.00;55.80
18412;DHT22;27097;51.738;19.472;2023-04-24T08:53:01;24.00;57.20
18412;DHT22;27097;51.738;19.472;2023-04-24T08:55:29;24.00;57.10
18412;DHT22;27097;51.738;19.472;2023-04-24T08:57:57;24.00;56.20
18412;DHT22;27097;51.738;19.472;2023-04-24T09:00:26;24.00;56.70
18412;DHT22;27097;51.738;19.472;2023-04-24T09:02:55;24.10;58.20
18412;DHT22;27097;51.738;19.472;2023-04-24T09:05:23;24.00;61.00
18412;DHT22;27097;51.738;19.472;2023-04-24T09:07:54;24.00;62.30
18412;DHT22;27097;51.738;19.472;2023-04-24T09:10:22;24.00;58.40
18412;DHT22;27097;51.738;19.472;2023-04-24T09:12:50;24.00;56.60
18412;DHT22;27097;51.738;19.472;2023-04-24T09:15:18;24.00;57.70
18412;DHT22;27097;51.738;19.472;2023-04-24T09:17:46;24.00;61.80
18412;DHT22;27097;51.738;19.472;2023-04-24T09:20:14;24.00;59.20
18412;DHT22;27097;51.738;19.472;2023-04-24T09:22:42;24.00;59.50
18412;DHT22;27097;51.738;19.472;2023-04-24T09:25:09;24.00;61.50
18412;DHT22;27097;51.738;19.472;2023-04-24T09:27:41;24.00;61.40
18412;DHT22;27097;51.738;19.472;2023-04-24T09:30:09;24.00;63.60
18412;DHT22;27097;51.738;19.472;2023-04-24T09:32:36;23.90;59.30
18412;DHT22;27097;51.738;19.472;2023-04-24T09:35:08;23.90;59.50
18412;DHT22;27097;51.738;19.472;2023-04-24T09:37:38;24.00;65.20
18412;DHT22;27097;51.738;19.472;2023-04-24T09:40:13;23.90;65.70
18412;DHT22;27097;51.738;19.472;2023-04-24T09:42:42;23.90;61.10
18412;DHT22;27097;51.738;19.472;2023-04-24T09:45:10;23.90;64.50
18412;DHT22;27097;51.738;19.472;2023-04-24T09:47:37;23.90;66.70
18412;DHT22;27097;51.738;19.472;2023-04-24T09:50:15;23.90;68.30
18412;DHT22;27097;51.738;19.472;2023-04-24T09:52:45;23.90;67.90
18412;DHT22;27097;51.738;19.472;2023-04-24T09:55:18;23.90;67.30
18412;DHT22;27097;51.738;19.472;2023-04-24T09:57:52;23.90;68.70
18412;DHT22;27097;51.738;19.472;2023-04-24T10:00:32;23.80;68.90
18412;DHT22;27097;51.738;19.472;2023-04-24T10:03:56;23.80;65.50
18412;DHT22;27097;51.738;19.472;2023-04-24T10:06:15;23.90;62.60
18412;DHT22;27097;51.738;19.472;2023-04-24T10:08:43;23.90;64.70
18412;DHT22;27097;51.738;19.472;2023-04-24T10:11:11;24.00;63.80
18412;DHT22;27097;51.738;19.472;2023-04-24T10:13:39;24.00;65.30
18412;DHT22;27097;51.738;19.472;2023-04-24T10:16:08;24.00;69.50
18412;DHT22;27097;51.738;19.472;2023-04-24T10:18:36;24.00;70.80
18412;DHT22;27097;51.738;19.472;2023-04-24T10:21:03;24.00;72.30
18412;DHT22;27097;51.738;19.472;2023-04-24T10:23:30;24.00;73.00
18412;DHT22;27097;51.738;19.472;2023-04-24T10:25:59;24.00;73.60
18412;DHT22;27097;51.738;19.472;2023-04-24T10:28:27;24.00;73.40
18412;DHT22;27097;51.738;19.472;2023-04-24T10:30:56;23.90;73.20
18412;DHT22;27097;51.738;19.472;2023-04-24T10:33:24;23.90;72.50
18412;DHT22;27097;51.738;19.472;2023-04-24T10:35:52;24.00;73.00
18412;DHT22;27097;51.738;19.472;2023-04-24T10:38:24;23.90;69.40
18412;DHT22;27097;51.738;19.472;2023-04-24T10:40:58;24.00;67.10
18412;DHT22;27097;51.738;19.472;2023-04-24T10:43:33;23.90;72.70
18412;DHT22;27097;51.738;19.472;2023-04-24T10:46:01;23.90;73.00
18412;DHT22;27097;51.738;19.472;2023-04-24T10:48:28;24.00;72.50
18412;DHT22;27097;51.738;19.472;2023-04-24T10:50:55;24.00;74.30
18412;DHT22;27097;51.738;19.472;2023-04-24T10:53:24;24.00;73.60
18412;DHT22;27097;51.738;19.472;2023-04-24T10:56:00;23.90;70.60
18412;DHT22;27097;51.738;19.472;2023-04-24T10:58:37;23.90;67.60
18412;DHT22;27097;51.738;19.472;2023-04-24T11:01:04;23.90;64.20
18412;DHT22;27097;51.738;19.472;2023-04-24T11:03:33;23.90;63.90
18412;DHT22;27097;51.738;19.472;2023-04-24T11:06:02;23.90;64.20
18412;DHT22;27097;51.738;19.472;2023-04-24T11:08:31;23.90;71.90
18412;DHT22;27097;51.738;19.472;2023-04-24T11:11:08;23.90;73.20
18412;DHT22;27097;51.738;19.472;2023-04-24T11:14:03;23.90;73.60
18412;DHT22;27097;51.738;19.472;2023-04-24T11:16:37;23.80;74.70
18412;DHT22;27097;51.738;19.472;2023-04-24T11:19:06;23.80;74.30
18412;DHT22;27097;51.738;19.472;2023-04-24T11:24:31;23.70;69.50
18412;DHT22;27097;51.738;19.472;2023-04-24T11:27:13;23.70;66.10
18412;DHT22;27097;51.738;19.472;2023-04-24T11:29:42;23.70;66.50
18412;DHT22;27097;51.738;19.472;2023-04-24T11:32:24;23.70;70.90
18412;DHT22;27097;51.738;19.472;2023-04-24T11:34:53;23.60;70.40
18412;DHT22;27097;51.738;19.472;2023-04-24T11:37:21;23.60;71.40
18412;DHT22;27097;51.738;19.472;2023-04-24T11:39:56;23.60;67.80
18412;DHT22;27097;51.738;19.472;2023-04-24T11:42:25;23.60;66.50
18412;DHT22;27097;51.738;19.472;2023-04-24T11:44:53;23.70;64.10
18412;DHT22;27097;51.738;19.472;2023-04-24T11:47:27;23.70;63.00
18412;DHT22;27097;51.738;19.472;2023-04-24T11:49:54;23.70;62.50
18412;DHT22;27097;51.738;19.472;2023-04-24T11:52:21;23.80;66.90
18412;DHT22;27097;51.738;19.472;2023-04-24T11:54:49;23.80;70.20
18412;DHT22;27097;51.738;19.472;2023-04-24T11:57:18;23.80;64.40
18412;DHT22;27097;51.738;19.472;2023-04-24T11:59:47;23.80;64.30
18412;DHT22;27097;51.738;19.472;2023-04-24T12:02:21;23.80;61.40
18412;DHT22;27097;51.738;19.472;2023-04-24T12:04:48;23.80;64.80
18412;DHT22;27097;51.738;19.472;2023-04-24T12:07:16;23.90;63.60
18412;DHT22;27097;51.738;19.472;2023-04-24T12:09:45;23.90;60.60
18412;DHT22;27097;51.738;19.472;2023-04-24T12:12:13;23.90;61.60
18412;DHT22;27097;51.738;19.472;2023-04-24T12:14:45;23.90;62.10
18412;DHT22;27097;51.738;19.472;2023-04-24T12:17:13;23.90;62.90
18412;DHT22;27097;51.738;19.472;2023-04-24T12:19:45;23.90;67.10
18412;DHT22;27097;51.738;19.472;2023-04-24T12:22:12;23.90;64.90
18412;DHT22;27097;51.738;19.472;2023-04-24T12:24:57;23.90;65.60
18412;DHT22;27097;51.738;19.472;2023-04-24T12:27:25;23.80;66.00
18412;DHT22;27097;51.738;19.472;2023-04-24T12:29:52;23.80;63.70
18412;DHT22;27097;51.738;19.472;2023-04-24T12:32:21;23.80;60.90
18412;DHT22;27097;51.738;19.472;2023-04-24T12:34:49;23.80;61.20
18412;DHT22;27097;51.738;19.472;2023-04-24T12:37:16;23.80;59.00
18412;DHT22;27097;51.738;19.472;2023-04-24T12:39:57;23.80;59.80
18412;DHT22;27097;51.738;19.472;2023-04-24T12:42:26;23.80;59.00
18412;DHT22;27097;51.738;19.472;2023-04-24T12:44:56;23.80;61.40
18412;DHT22;27097;51.738;19.472;2023-04-24T12:47:26;23.80;59.40
18412;DHT22;27097;51.738;19.472;2023-04-24T12:49:53;23.80;61.10
18412;DHT22;27097;51.738;19.472;2023-04-24T12:52:21;23.80;58.70
18412;DHT22;27097;51.738;19.472;2023-04-24T12:54:49;23.80;60.50
18412;DHT22;27097;51.738;19.472;2023-04-24T12:57:16;23.80;61.40
18412;DHT22;27097;51.738;19.472;2023-04-24T12:59:43;23.80;57.70
18412;DHT22;27097;51.738;19.472;2023-04-24T13:02:10;23.80;55.80
18412;DHT22;27097;51.738;19.472;2023-04-24T13:04:46;23.80;57.50
18412;DHT22;27097;51.738;19.472;2023-04-24T13:07:13;23.80;63.80
18412;DHT22;27097;51.738;19.472;2023-04-24T13:09:41;23.80;64.80
18412;DHT22;27097;51.738;19.472;2023-04-24T13:12:08;23.70;58.60
18412;DHT22;27097;51.738;19.472;2023-04-24T13:14:35;23.80;59.30
18412;DHT22;27097;51.738;19.472;2023-04-24T13:17:03;23.70;59.20
18412;DHT22;27097;51.738;19.472;2023-04-24T13:19:35;23.80;60.60
18412;DHT22;27097;51.738;19.472;2023-04-24T13:22:04;23.80;64.00
18412;DHT22;27097;51.738;19.472;2023-04-24T13:24:32;23.70;65.00
18412;DHT22;27097;51.738;19.472;2023-04-24T13:26:59;23.70;62.60
18412;DHT22;27097;51.738;19.472;2023-04-24T13:29:27;23.70;60.00
18412;DHT22;27097;51.738;19.472;2023-04-24T13:31:54;23.70;59.20
18412;DHT22;27097;51.738;19.472;2023-04-24T13:34:22;23.70;60.00
18412;DHT22;27097;51.738;19.472;2023-04-24T13:36:49;23.70;58.10
18412;DHT22;27097;51.738;19.472;2023-04-24T13:39:18;23.70;57.10
18412;DHT22;27097;51.738;19.472;2023-04-24T13:41:45;23.70;56.50
18412;DHT22;27097;51.738;19.472;2023-04-24T13:44:13;23.70;57.70
18412;DHT22;27097;51.738;19.472;2023-04-24T13:46:40;23.80;56.80
18412;DHT22;27097;51.738;19.472;2023-04-24T13:49:07;23.80;56.20
18412;DHT22;27097;51.738;19.472;2023-04-24T13:51:34;23.80;55.70
18412;DHT22;27097;51.738;19.472;2023-04-24T13:54:01;23.80;57.70
18412;DHT22;27097;51.738;19.472;2023-04-24T13:56:29;23.80;50.90
18412;DHT22;27097;51.738;19.472;2023-04-24T13:58:56;23.80;53.30
18412;DHT22;27097;51.738;19.472;2023-04-24T14:01:24;23.80;53.10
18412;DHT22;27097;51.738;19.472;2023-04-24T14:03:51;23.80;54.70
18412;DHT22;27097;51.738;19.472;2023-04-24T14:06:18;23.80;53.80
18412;DHT22;27097;51.738;19.472;2023-04-24T14:08:44;23.80;55.50
18412;DHT22;27097;51.738;19.472;2023-04-24T14:11:11;23.80;54.10
18412;DHT22;27097;51.738;19.472;2023-04-24T14:13:40;23.80;51.80
18412;DHT22;27097;51.738;19.472;2023-04-24T14:16:08;23.80;50.40
18412;DHT22;27097;51.738;19.472;2023-04-24T14:18:35;23.80;49.90
18412;DHT22;27097;51.738;19.472;2023-04-24T14:21:02;23.70;50.00
18412;DHT22;27097;51.738;19.472;2023-04-24T14:23:29;23.70;51.10
18412;DHT22;27097;51.738;19.472;2023-04-24T14:25:56;23.70;49.60
18412;DHT22;27097;51.738;19.472;2023-04-24T14:28:23;23.70;49.20
18412;DHT22;27097;51.738;19.472;2023-04-24T14:30:52;23.60;47.80
18412;DHT22;27097;51.738;19.472;2023-04-24T14:33:19;23.70;49.80
18412;DHT22;27097;51.738;19.472;2023-04-24T14:35:46;23.60;48.40
18412;DHT22;27097;51.738;19.472;2023-04-24T14:38:13;23.60;50.30
18412;DHT22;27097;51.738;19.472;2023-04-24T14:40:40;23.60;48.60
18412;DHT22;27097;51.738;19.472;2023-04-24T14:43:07;23.60;48.40
18412;DHT22;27097;51.738;19.472;2023-04-24T14:45:34;23.60;49.10
18412;DHT22;27097;51.738;19.472;2023-04-24T14:48:02;23.60;50.40
18412;DHT22;27097;51.738;19.472;2023-04-24T14:50:29;23.60;54.00
18412;DHT22;27097;51.738;19.472;2023-04-24T14:52:56;23.60;53.90
18412;DHT22;27097;51.738;19.472;2023-04-24T14:55:23;23.60;50.40
18412;DHT22;27097;51.738;19.472;2023-04-24T14:57:51;23.60;56.00
18412;DHT22;27097;51.738;19.472;2023-04-24T15:00:19;23.60;55.60
18412;DHT22;27097;51.738;19.472;2023-04-24T15:02:51;23.60;56.60
18412;DHT22;27097;51.738;19.472;2023-04-24T15:05:26;23.60;57.40
18412;DHT22;27097;51.738;19.472;2023-04-24T15:07:53;23.60;58.30
18412;DHT22;27097;51.738;19.472;2023-04-24T15:10:23;23.60;59.10
18412;DHT22;27097;51.738;19.472;2023-04-24T15:13:04;23.60;58.70
18412;DHT22;27097;51.738;19.472;2023-04-24T15:15:31;23.60;58.40
18412;DHT22;27097;51.738;19.472;2023-04-24T15:18:04;23.60;60.20
18412;DHT22;27097;51.738;19.472;2023-04-24T15:20:35;23.60;61.00
18412;DHT22;27097;51.738;19.472;2023-04-24T15:23:04;23.70;60.90
18412;DHT22;27097;51.738;19.472;2023-04-24T15:25:32;23.70;61.80
18412;DHT22;27097;51.738;19.472;2023-04-24T15:27:59;23.60;61.90